Time;durP1;ratioP1;P1;durP2;ratioP2;P2;SDS_P1;SDS_P2;PMS_P1;PMS_P2;Temp;Humidity;BMP_temperature;BMP_pressure;BME280_temperature;BME280_humidity;BME280_pressure;Samples;Min_cycle;Max_cycle;Signal;HPM_P1;HPM_P2
2023/09/24 00:00:58;;;;;;;4.18;1.38;;;;;;;14.58;100.00;98569.66;4893953;29;20052;-92
2023/09/24 00:03:26;;;;;;;1.90;0.90;;;;;;;14.72;100.00;98600.25;4898828;29;20443;-92
2023/09/24 00:05:52;;;;;;;3.10;1.05;;;;;;;14.42;100.00;98554.34;4897453;29;20054;-93
2023/09/24 00:08:18;;;;;;;6.47;1.23;;;;;;;14.46;100.00;98554.13;4892445;29;20052;-92
2023/09/24 00:10:46;;;;;;;4.82;1.10;;;;;;;14.33;100.00;98528.88;4892524;29;20054;-94
2023/09/24 00:13:12;;;;;;;3.22;1.38;;;;;;;14.21;100.00;98513.41;4895463;29;20040;-93
2023/09/24 00:15:38;;;;;;;6.53;1.27;;;;;;;14.47;100.00;98553.19;4897007;29;20160;-93
2023/09/24 00:18:04;;;;;;;4.35;1.15;;;;;;;14.58;100.00;98566.97;4897117;29;20044;-93
2023/09/24 00:20:31;;;;;;;3.65;0.90;;;;;;;14.67;100.00;98594.25;4891312;29;20040;-93
2023/09/24 00:22:58;;;;;;;3.20;0.93;;;;;;;14.46;100.00;98562.16;4897978;29;20044;-91
2023/09/24 00:25:26;;;;;;;7.63;1.40;;;;;;;14.44;100.00;98588.09;4892596;29;20467;-92
2023/09/24 00:27:54;;;;;;;4.40;1.15;;;;;;;14.03;100.00;98510.66;4894786;29;20516;-92
2023/09/24 00:30:20;;;;;;;4.63;1.13;;;;;;;14.38;100.00;98599.13;4886788;29;20052;-92
2023/09/24 00:32:46;;;;;;;6.53;1.08;;;;;;;14.14;100.00;98551.13;4891653;29;20182;-93
2023/09/24 00:35:12;;;;;;;3.38;1.00;;;;;;;14.24;100.00;98556.06;4894839;29;20517;-92
2023/09/24 00:37:39;;;;;;;4.03;0.80;;;;;;;14.58;100.00;98616.97;4892435;29;20418;-93
2023/09/24 00:40:08;;;;;;;4.65;1.20;;;;;;;14.29;100.00;98570.97;4895996;29;20040;-91
2023/09/24 00:42:34;;;;;;;5.88;0.93;;;;;;;14.29;100.00;98587.03;4896430;29;20036;-91
2023/09/24 00:45:00;;;;;;;3.58;1.00;;;;;;;14.34;100.00;98606.41;4893338;29;20024;-92
2023/09/24 00:47:27;;;;;;;5.25;1.15;;;;;;;14.25;100.00;98592.53;4889752;29;20048;-93
2023/09/24 00:49:54;;;;;;;2.28;0.95;;;;;;;14.39;100.00;98617.75;4890590;29;20562;-92
2023/09/24 00:52:20;;;;;;;3.20;1.10;;;;;;;13.90;100.00;98560.22;4889462;29;20040;-92
2023/09/24 00:54:48;;;;;;;3.42;0.90;;;;;;;13.83;100.00;98540.91;4897125;29;20102;-91
2023/09/24 00:57:14;;;;;;;3.10;1.17;;;;;;;14.29;100.00;98615.53;4893473;29;20096;-92
2023/09/24 00:59:40;;;;;;;4.10;1.17;;;;;;;14.43;100.00;98613.13;4887361;29;20124;-92
2023/09/24 01:02:07;;;;;;;6.57;1.17;;;;;;;14.22;100.00;98563.28;4895130;29;20498;-92
2023/09/24 01:04:35;;;;;;;5.70;1.17;;;;;;;14.25;100.00;98565.81;4890588;29;20104;-92
2023/09/24 01:07:02;;;;;;;5.30;1.30;;;;;;;14.41;100.00;98571.34;4887420;29;20044;-93
2023/09/24 01:09:28;;;;;;;2.15;0.80;;;;;;;14.65;100.00;98602.34;4896375;29;20065;-91
2023/09/24 01:11:57;;;;;;;2.58;0.73;;;;;;;14.14;100.00;98526.22;4895105;29;20058;-94
2023/09/24 01:14:25;;;;;;;6.22;0.85;;;;;;;14.45;100.00;98587.19;4889686;29;20050;-92
2023/09/24 01:16:51;;;;;;;3.53;0.93;;;;;;;14.31;100.00;98578.91;4893648;29;20036;-91
2023/09/24 01:19:17;;;;;;;3.05;1.13;;;;;;;14.46;100.00;98612.97;4892995;29;20462;-93
2023/09/24 01:21:45;;;;;;;2.88;1.08;;;;;;;14.34;100.00;98598.38;4894688;29;20131;-93
2023/09/24 01:24:12;;;;;;;2.72;0.90;;;;;;;14.26;100.00;98594.31;4894871;29;20059;-92
2023/09/24 01:26:38;;;;;;;1.77;0.93;;;;;;;14.34;100.00;98627.78;4889278;29;20059;-93
2023/09/24 01:29:11;;;;;;;2.70;0.70;;;;;;;14.18;100.00;98622.25;4895283;29;20561;-91
2023/09/24 01:31:38;;;;;;;2.60;1.08;;;;;;;14.15;100.00;98600.13;4890674;29;20048;-92
2023/09/24 01:34:05;;;;;;;2.53;0.65;;;;;;;14.13;100.00;98613.56;4894610;29;20119;-93
2023/09/24 01:36:32;;;;;;;3.00;0.73;;;;;;;13.74;100.00;98576.94;4894632;29;20071;-91
2023/09/24 01:38:58;;;;;;;2.53;0.65;;;;;;;13.80;100.00;98582.97;4890441;29;20079;-92
2023/09/24 01:41:26;;;;;;;4.47;0.80;;;;;;;13.53;100.00;98548.44;4895173;29;20072;-94
2023/09/24 01:43:52;;;;;;;1.52;0.60;;;;;;;13.76;100.00;98600.94;4885384;29;20075;-92
2023/09/24 01:46:20;;;;;;;2.15;0.63;;;;;;;13.88;100.00;98628.91;4892239;29;20047;-94
2023/09/24 01:48:49;;;;;;;2.53;0.75;;;;;;;13.83;100.00;98606.88;4894240;29;20044;-94
2023/09/24 01:51:15;;;;;;;6.43;0.88;;;;;;;13.64;100.00;98588.06;4896943;29;20051;-93
2023/09/24 01:53:42;;;;;;;1.65;0.68;;;;;;;13.48;100.00;98555.81;4889806;29;20056;-93
2023/09/24 01:56:08;;;;;;;1.98;0.75;;;;;;;13.61;100.00;98573.06;4890636;29;20554;-93
2023/09/24 01:58:37;;;;;;;2.67;0.98;;;;;;;13.66;100.00;98572.84;4893220;29;20052;-92
2023/09/24 02:01:03;;;;;;;2.65;0.63;;;;;;;13.74;100.00;98573.41;4899870;29;20116;-92
2023/09/24 02:03:30;;;;;;;2.75;0.98;;;;;;;13.89;100.00;98598.59;4892178;29;20037;-93
2023/09/24 02:05:56;;;;;;;3.35;1.00;;;;;;;13.55;100.00;98557.28;4892474;29;20052;-94
2023/09/24 02:08:22;;;;;;;5.05;0.90;;;;;;;13.71;100.00;98577.06;4894211;29;20063;-92
2023/09/24 02:10:48;;;;;;;3.70;0.75;;;;;;;13.71;100.00;98579.75;4894183;29;20063;-93
2023/09/24 02:13:15;;;;;;;2.35;0.90;;;;;;;13.37;100.00;98531.34;4901692;29;20059;-94
2023/09/24 02:15:49;;;;;;;3.47;0.95;;;;;;;13.79;100.00;98591.91;4887158;29;20516;-94
2023/09/24 02:18:16;;;;;;;5.38;0.73;;;;;;;13.47;100.00;98532.72;4891858;29;20039;-92
2023/09/24 02:20:43;;;;;;;1.88;0.90;;;;;;;13.51;100.00;98539.63;4888368;29;20406;-93
2023/09/24 02:23:10;;;;;;;6.68;1.52;;;;;;;13.70;100.00;98583.34;4891393;29;20044;-93
2023/09/24 02:25:37;;;;;;;5.53;1.20;;;;;;;13.77;100.00;98614.22;4888522;29;20028;-94
2023/09/24 02:28:04;;;;;;;5.43;1.40;;;;;;;13.58;100.00;98591.03;4895928;29;20053;-93
2023/09/24 02:30:31;;;;;;;2.63;1.05;;;;;;;13.54;100.00;98582.28;4893087;29;20043;-93
2023/09/24 02:32:59;;;;;;;2.80;1.20;;;;;;;13.57;100.00;98592.81;4887506;29;20045;-93
2023/09/24 02:35:25;;;;;;;2.85;1.20;;;;;;;13.60;100.00;98608.72;4895354;29;20056;-93
2023/09/24 02:37:52;;;;;;;2.60;0.80;;;;;;;13.54;100.00;98585.81;4919801;29;20041;-93
2023/09/24 02:43:07;;;;;;;7.20;2.38;;;;;;;13.71;100.00;98606.47;5152654;27;20377;-94
2023/09/24 02:45:33;;;;;;;5.32;1.52;;;;;;;13.68;100.00;98603.91;5120467;28;20039;-94
2023/09/24 02:47:59;;;;;;;5.00;1.52;;;;;;;13.74;100.00;98595.63;5123146;28;20048;-92
2023/09/24 02:50:27;;;;;;;5.35;1.30;;;;;;;13.73;100.00;98593.06;5119698;27;20039;-92
2023/09/24 02:52:54;;;;;;;4.68;2.28;;;;;;;13.52;100.00;98573.44;5124095;28;20072;-92
2023/09/24 02:55:22;;;;;;;7.40;2.08;;;;;;;13.61;100.00;98583.75;5121678;27;20042;-92
2023/09/24 02:57:50;;;;;;;4.57;1.27;;;;;;;13.82;100.00;98607.81;5119150;28;20112;-94
2023/09/24 03:00:26;;;;;;;6.93;2.45;;;;;;;13.81;100.00;98584.69;5116588;27;20396;-93
2023/09/24 03:02:53;;;;;;;5.93;1.52;;;;;;;13.90;100.00;98613.69;5118667;27;20049;-93
2023/09/24 03:05:20;;;;;;;4.45;1.85;;;;;;;13.65;100.00;98587.16;5121054;27;20040;-92
2023/09/24 03:07:46;;;;;;;3.70;1.25;;;;;;;13.62;100.00;98596.19;5123081;27;20035;-93
2023/09/24 03:10:13;;;;;;;4.20;1.95;;;;;;;13.61;100.00;98597.09;5121121;27;20557;-93
2023/09/24 03:12:39;;;;;;;5.53;2.08;;;;;;;13.65;100.00;98628.09;5117254;27;20074;-93
2023/09/24 03:15:06;;;;;;;5.32;1.17;;;;;;;13.36;100.00;98573.22;5118025;27;20055;-93
2023/09/24 03:17:34;;;;;;;5.32;2.10;;;;;;;13.63;100.00;98621.94;5118935;27;20449;-93
2023/09/24 03:20:00;;;;;;;4.85;2.03;;;;;;;13.71;100.00;98638.53;5118272;27;20043;-93
2023/09/24 03:22:26;;;;;;;5.80;2.60;;;;;;;13.60;100.00;98637.22;5118915;27;20396;-92
2023/09/24 03:24:52;;;;;;;3.97;2.33;;;;;;;13.46;100.00;98619.97;5116617;27;20077;-93
2023/09/24 03:27:19;;;;;;;6.97;2.50;;;;;;;13.61;100.00;98626.47;5119805;27;20491;-92
2023/09/24 03:29:45;;;;;;;4.90;1.67;;;;;;;13.75;100.00;98645.50;5119100;28;20044;-93
2023/09/24 03:32:11;;;;;;;5.57;1.33;;;;;;;13.73;100.00;98639.34;5119534;27;20042;-93
2023/09/24 03:34:38;;;;;;;2.67;2.13;;;;;;;13.75;100.00;98649.97;5119733;27;20039;-92
2023/09/24 03:37:06;;;;;;;4.47;2.42;;;;;;;13.56;100.00;98632.03;5123492;27;20453;-93
2023/09/24 03:39:32;;;;;;;3.05;1.20;;;;;;;13.54;100.00;98639.22;5119835;27;20085;-93
2023/09/24 03:41:58;;;;;;;3.80;1.33;;;;;;;13.62;100.00;98638.94;5120102;27;20035;-92
2023/09/24 03:44:23;;;;;;;4.40;1.17;;;;;;;13.83;100.00;98676.38;5119950;27;20065;-92
2023/09/24 03:46:49;;;;;;;3.15;1.23;;;;;;;13.66;100.00;98642.31;5127478;27;20556;-93
2023/09/24 03:49:15;;;;;;;2.83;1.13;;;;;;;13.77;100.00;98661.47;5121353;27;20043;-92
2023/09/24 03:51:43;;;;;;;4.90;1.33;;;;;;;13.65;100.00;98660.16;5118576;28;20040;-93
2023/09/24 03:54:09;;;;;;;1.33;0.90;;;;;;;13.66;100.00;98653.91;5100619;28;20493;-93
2023/09/24 03:56:34;;;;;;;3.45;1.20;;;;;;;13.46;100.00;98627.13;5099249;28;20093;-93
2023/09/24 03:59:00;;;;;;;5.15;1.60;;;;;;;13.56;100.00;98660.56;5098628;28;20046;-93
2023/09/24 04:01:26;;;;;;;3.67;1.30;;;;;;;13.41;100.00;98618.44;5098383;28;20044;-93
2023/09/24 04:03:52;;;;;;;3.28;1.73;;;;;;;13.54;100.00;98652.59;5097937;28;20819;-93
2023/09/24 04:06:18;;;;;;;3.25;1.60;;;;;;;13.58;100.00;98652.47;5098443;28;20612;-93
2023/09/24 04:08:45;;;;;;;3.28;1.27;;;;;;;13.55;100.00;98661.47;5098538;28;20038;-93
2023/09/24 04:11:15;;;;;;;6.25;1.15;;;;;;;13.52;100.00;98664.28;5098796;28;20035;-93
2023/09/24 04:13:41;;;;;;;2.40;1.40;;;;;;;13.55;100.00;98669.47;5097619;28;20040;-93
2023/09/24 04:16:09;;;;;;;3.40;1.10;;;;;;;13.56;100.00;98680.13;5098674;27;20038;-93
2023/09/24 04:18:35;;;;;;;7.40;1.50;;;;;;;13.64;100.00;98690.50;5098524;28;20043;-92
2023/09/24 04:21:01;;;;;;;2.30;1.77;;;;;;;13.48;100.00;98670.66;5098609;28;20107;-93
2023/09/24 04:23:27;;;;;;;2.55;1.00;;;;;;;13.50;100.00;98668.81;5097490;28;20093;-92
2023/09/24 04:25:55;;;;;;;3.15;1.48;;;;;;;13.54;100.00;98683.78;5098193;28;20035;-92
2023/09/24 04:28:21;;;;;;;3.22;1.02;;;;;;;13.44;100.00;98666.38;5097490;28;20040;-92
2023/09/24 04:30:47;;;;;;;4.78;1.20;;;;;;;13.54;100.00;98679.31;5097374;28;20139;-93
2023/09/24 04:33:12;;;;;;;3.95;1.88;;;;;;;13.65;100.00;98681.53;5097970;28;20043;-93
2023/09/24 04:35:38;;;;;;;3.85;1.40;;;;;;;13.74;100.00;98696.31;5099574;28;20099;-93
2023/09/24 04:38:07;;;;;;;3.83;1.17;;;;;;;13.56;100.00;98661.41;5098458;28;20632;-93
2023/09/24 04:40:33;;;;;;;4.68;1.30;;;;;;;13.60;100.00;98656.81;5098215;28;20571;-93
2023/09/24 04:43:02;;;;;;;4.57;1.80;;;;;;;13.37;100.00;98611.47;5098161;28;20560;-92
2023/09/24 04:45:28;;;;;;;3.78;0.98;;;;;;;13.72;100.00;98661.63;5094881;28;20112;-93
2023/09/24 04:47:54;;;;;;;2.67;0.90;;;;;;;13.90;100.00;98688.53;5097775;28;20500;-92
2023/09/24 04:50:23;;;;;;;8.25;2.75;;;;;;;13.88;100.00;98688.63;5098764;27;20035;-94
2023/09/24 04:52:51;;;;;;;6.43;1.35;;;;;;;13.76;100.00;98683.78;5099449;28;20042;-93
2023/09/24 04:55:16;;;;;;;3.50;1.58;;;;;;;13.73;100.00;98671.41;5097818;28;20051;-93
2023/09/24 04:57:44;;;;;;;2.88;1.13;;;;;;;13.96;100.00;98696.31;5097685;28;20488;-93
2023/09/24 05:00:14;;;;;;;2.70;0.90;;;;;;;14.17;100.00;98721.28;5096403;28;20122;-92
2023/09/24 05:02:40;;;;;;;1.95;1.05;;;;;;;14.07;100.00;98703.88;5098326;27;20123;-93
2023/09/24 05:05:07;;;;;;;4.35;1.20;;;;;;;13.96;100.00;98681.13;5097271;28;20055;-92
2023/09/24 05:07:33;;;;;;;3.13;1.83;;;;;;;14.07;100.00;98693.19;5097290;28;20131;-93
2023/09/24 05:09:59;;;;;;;2.13;1.85;;;;;;;14.26;100.00;98720.00;5098889;27;20123;-92
2023/09/24 05:12:25;;;;;;;3.47;0.90;;;;;;;14.15;100.00;98699.94;5098039;28;20039;-94
2023/09/24 05:14:51;;;;;;;5.38;1.13;;;;;;;14.29;100.00;98717.19;5101033;27;20134;-94
2023/09/24 05:17:18;;;;;;;2.17;0.95;;;;;;;14.17;100.00;98694.53;5097819;28;20039;-93
2023/09/24 05:19:44;;;;;;;2.88;0.52;;;;;;;14.12;100.00;98709.91;5097255;28;20499;-93
2023/09/24 05:22:10;;;;;;;3.70;0.85;;;;;;;13.96;100.00;98694.50;5097168;28;20028;-93
2023/09/24 05:24:36;;;;;;;3.60;1.63;;;;;;;14.37;100.00;98745.34;5096782;28;20122;-92
2023/09/24 05:27:02;;;;;;;2.53;1.33;;;;;;;14.09;100.00;98683.28;5097396;28;20150;-93
2023/09/24 05:29:27;;;;;;;3.00;1.60;;;;;;;14.20;100.00;98693.53;5095819;28;20404;-92
2023/09/24 05:31:53;;;;;;;2.10;0.82;;;;;;;14.07;100.00;98658.41;5096416;28;20047;-94
2023/09/24 05:34:20;;;;;;;2.30;1.30;;;;;;;14.16;100.00;98672.28;5097440;28;20043;-94
2023/09/24 05:36:49;;;;;;;3.58;1.75;;;;;;;14.56;100.00;98724.06;5097108;28;20382;-93
2023/09/24 05:39:15;;;;;;;4.25;0.75;;;;;;;14.61;100.00;98733.69;5095637;28;20036;-93
2023/09/24 05:41:41;;;;;;;4.53;1.60;;;;;;;14.70;100.00;98741.31;5097201;28;20051;-93
2023/09/24 05:44:06;;;;;;;3.70;1.63;;;;;;;14.72;100.00;98736.75;5096874;28;21353;-93
2023/09/24 05:46:32;;;;;;;3.33;1.58;;;;;;;14.60;100.00;98702.53;5096138;28;20092;-93
2023/09/24 05:48:59;;;;;;;4.35;1.20;;;;;;;14.78;100.00;98718.63;5096858;28;20122;-92
2023/09/24 05:51:26;;;;;;;2.60;0.82;;;;;;;14.72;100.00;98718.88;5096448;28;20086;-92
2023/09/24 05:53:52;;;;;;;2.25;0.93;;;;;;;14.74;100.00;98729.53;5097233;28;20047;-92
2023/09/24 05:56:18;;;;;;;5.35;1.67;;;;;;;14.69;100.00;98743.13;5096926;28;20047;-93
2023/09/24 05:58:44;;;;;;;5.40;1.92;;;;;;;14.75;100.00;98756.25;5096952;28;20048;-93
2023/09/24 06:01:13;;;;;;;4.95;0.90;;;;;;;14.47;100.00;98708.38;5096074;28;20491;-93
2023/09/24 06:03:39;;;;;;;2.08;0.90;;;;;;;14.94;100.00;98766.13;5096885;28;20074;-93
2023/09/24 06:06:08;;;;;;;6.20;1.65;;;;;;;14.58;100.00;98724.00;5096850;28;20441;-92
2023/09/24 06:08:37;;;;;;;3.72;0.90;;;;;;;14.70;100.00;98726.16;5096978;28;20081;-93
2023/09/24 06:11:04;;;;;;;4.45;1.63;;;;;;;14.78;100.00;98718.63;5096257;28;20078;-93
2023/09/24 06:13:31;;;;;;;4.43;1.30;;;;;;;14.95;100.00;98736.59;5097299;28;20052;-93
2023/09/24 06:15:58;;;;;;;3.10;1.10;;;;;;;15.08;100.00;98757.47;5096752;28;20039;-93
2023/09/24 06:18:24;;;;;;;3.90;1.17;;;;;;;15.01;100.00;98754.22;5097498;28;20118;-94
2023/09/24 06:20:50;;;;;;;2.03;0.80;;;;;;;14.55;100.00;98725.00;5097122;28;20104;-93
2023/09/24 06:23:16;;;;;;;1.60;0.80;;;;;;;14.53;100.00;98742.00;5098399;28;20496;-94
2023/09/24 06:25:44;;;;;;;6.10;1.92;;;;;;;14.54;100.00;98754.47;5096973;28;20404;-92
2023/09/24 06:28:10;;;;;;;4.00;0.80;;;;;;;14.48;100.00;98755.59;5097426;28;20139;-92
2023/09/24 06:30:36;;;;;;;1.52;0.82;;;;;;;14.09;100.00;98748.31;5096562;28;20460;-93
2023/09/24 06:33:03;;;;;;;3.22;1.10;;;;;;;13.97;100.00;98739.03;5098273;28;20067;-93
2023/09/24 06:35:29;;;;;;;2.22;1.20;;;;;;;14.47;100.00;98772.59;5098924;28;20043;-95
2023/09/24 06:37:54;;;;;;;2.00;1.10;;;;;;;14.52;100.00;98749.19;5099499;28;20054;-94
2023/09/24 06:40:20;;;;;;;4.88;1.05;;;;;;;14.83;100.00;98777.28;5098578;28;20044;-93
2023/09/24 06:42:48;;;;;;;2.25;0.77;;;;;;;14.81;100.00;98771.13;5097877;28;20043;-95
2023/09/24 06:45:14;;;;;;;2.05;1.00;;;;;;;14.93;100.00;98773.28;5098211;28;20036;-93
2023/09/24 06:47:40;;;;;;;1.98;0.85;;;;;;;14.83;100.00;98737.13;5099456;28;20036;-94
2023/09/24 06:50:07;;;;;;;1.98;0.98;;;;;;;15.06;100.00;98762.03;5101573;28;20043;-93
2023/09/24 06:52:34;;;;;;;3.00;1.38;;;;;;;14.91;100.00;98720.75;5098478;28;20032;-94
2023/09/24 06:55:00;;;;;;;1.75;0.77;;;;;;;15.34;100.00;98780.38;5098419;28;20097;-93
2023/09/24 06:57:26;;;;;;;2.92;0.93;;;;;;;15.33;100.00;98770.59;5098277;28;20138;-95
2023/09/24 06:59:54;;;;;;;2.55;0.90;;;;;;;15.44;100.00;98794.22;5100034;28;20043;-93
2023/09/24 07:02:20;;;;;;;2.67;1.25;;;;;;;15.54;100.00;98817.81;5097988;28;20066;-94
2023/09/24 07:04:46;;;;;;;2.92;0.80;;;;;;;15.19;100.00;98780.13;5098280;28;20040;-93
2023/09/24 07:07:12;;;;;;;1.65;0.68;;;;;;;15.14;100.00;98794.69;5099019;28;20040;-93
2023/09/24 07:09:38;;;;;;;2.35;0.98;;;;;;;15.06;100.00;98764.72;5097502;28;20027;-94
2023/09/24 07:12:04;;;;;;;2.47;0.88;;;;;;;15.47;100.00;98840.50;5097690;28;20047;-93
2023/09/24 07:14:30;;;;;;;3.40;0.93;;;;;;;14.93;100.00;98778.63;5097949;28;20043;-94
2023/09/24 07:16:57;;;;;;;2.63;0.77;;;;;;;15.12;100.00;98789.41;5099471;28;20146;-93
2023/09/24 07:19:24;;;;;;;3.33;1.15;;;;;;;14.37;100.00;98782.81;5097821;28;20046;-93
2023/09/24 07:21:50;;;;;;;2.25;1.02;;;;;;;14.48;100.00;98835.88;5096705;28;20135;-92
2023/09/24 07:24:16;;;;;;;2.13;1.05;;;;;;;14.93;100.00;98836.69;5097475;28;20047;-93
2023/09/24 07:26:43;;;;;;;2.85;1.55;;;;;;;15.17;100.00;98842.75;5097596;28;20462;-95
2023/09/24 07:29:08;;;;;;;3.45;1.13;;;;;;;15.67;100.00;98809.22;5098471;28;20039;-93
2023/09/24 07:31:34;;;;;;;1.85;0.90;;;;;;;16.35;100.00;98822.94;5099364;28;20070;-93
2023/09/24 07:34:02;;;;;;;2.33;1.23;;;;;;;16.67;100.00;98844.63;5100587;28;20047;-93
2023/09/24 07:36:28;;;;;;;3.42;1.23;;;;;;;17.02;100.00;98870.59;5101329;28;20115;-94
2023/09/24 07:38:54;;;;;;;2.42;1.90;;;;;;;16.62;100.00;98861.81;5100540;28;20443;-94
2023/09/24 07:41:21;;;;;;;6.97;2.08;;;;;;;16.45;100.00;98858.25;5099609;28;20055;-94
2023/09/24 07:43:47;;;;;;;3.05;1.00;;;;;;;16.78;100.00;98815.41;5099977;28;20043;-94
2023/09/24 07:46:15;;;;;;;2.40;1.13;;;;;;;17.51;100.00;98848.28;5099735;28;20067;-93
2023/09/24 07:48:42;;;;;;;5.28;1.30;;;;;;;17.11;100.00;98847.75;5099653;28;20039;-93
2023/09/24 07:51:10;;;;;;;3.78;1.35;;;;;;;16.94;100.00;98864.72;5100380;28;20067;-94
2023/09/24 07:53:36;;;;;;;3.17;1.40;;;;;;;16.63;100.00;98851.94;5102620;28;20031;-93
2023/09/24 07:56:07;;;;;;;5.38;1.55;;;;;;;16.60;100.00;98815.38;5100395;28;20040;-93
2023/09/24 07:58:34;;;;;;;3.20;1.42;;;;;;;17.27;100.00;98877.34;5098364;28;20089;-92
2023/09/24 08:01:01;;;;;;;5.70;1.52;;;;;;;16.35;100.00;98876.59;5097445;28;20415;-92
2023/09/24 08:03:27;;;;;;;2.95;1.48;;;;;;;16.10;100.00;98853.66;5100545;28;20054;-94
2023/09/24 08:05:53;;;;;;;2.92;1.20;;;;;;;16.29;100.00;98869.75;5100345;28;20044;-93
2023/09/24 08:08:20;;;;;;;2.30;0.88;;;;;;;16.64;100.00;98856.38;5099860;28;20040;-93
2023/09/24 08:10:47;;;;;;;3.33;0.85;;;;;;;17.11;100.00;98860.28;5101230;28;20140;-94
2023/09/24 08:13:13;;;;;;;2.80;0.60;;;;;;;17.04;100.00;98891.97;5100574;28;20040;-95
2023/09/24 08:15:39;;;;;;;3.83;1.50;;;;;;;17.36;100.00;98886.75;5100742;28;20048;-94
2023/09/24 08:18:09;;;;;;;1.35;0.40;;;;;;;17.44;100.00;98861.19;5101192;28;20047;-94
2023/09/24 08:20:35;;;;;;;1.80;0.90;;;;;;;17.93;100.00;98864.88;5100518;28;20113;-94
2023/09/24 08:23:02;;;;;;;2.92;0.75;;;;;;;17.40;100.00;98866.81;5083019;28;20036;-95
2023/09/24 08:25:29;;;;;;;2.17;0.82;;;;;;;17.81;100.00;98861.88;5100398;28;20097;-95
2023/09/24 08:27:55;;;;;;;3.08;0.70;;;;;;;18.37;100.00;98877.66;5099880;28;20071;-94
2023/09/24 08:30:21;;;;;;;1.92;0.75;;;;;;;18.64;100.00;98894.91;5100552;28;20047;-94
2023/09/24 08:32:47;;;;;;;2.10;0.80;;;;;;;18.24;100.00;98846.06;5100574;28;20066;-94
2023/09/24 08:35:13;;;;;;;1.15;0.88;;;;;;;18.88;100.00;98884.53;5099808;28;20110;-93
2023/09/24 08:37:39;;;;;;;4.75;1.00;;;;;;;17.97;100.00;98894.22;5099846;28;20039;-95
2023/09/24 08:40:09;;;;;;;1.88;0.82;;;;;;;18.90;100.00;98872.81;5099827;28;20042;-93
2023/09/24 08:42:37;;;;;;;1.92;0.85;;;;;;;18.81;100.00;98868.84;5097904;28;20094;-93
2023/09/24 08:45:10;;;;;;;1.58;0.47;;;;;;;19.76;100.00;98867.59;5098846;28;20072;-93
2023/09/24 08:47:38;;;;;;;2.13;0.93;;;;;;;19.76;100.00;98916.16;5095825;28;20067;-93
2023/09/24 08:50:05;;;;;;;2.47;0.80;;;;;;;19.32;100.00;98917.88;5097888;28;20031;-92
2023/09/24 08:52:34;;;;;;;2.95;0.95;;;;;;;18.29;100.00;98920.28;5098657;27;20507;-92
2023/09/24 08:55:00;;;;;;;1.55;0.80;;;;;;;18.57;100.00;98898.91;5096924;28;20569;-94
2023/09/24 08:57:26;;;;;;;2.53;0.65;;;;;;;18.06;100.00;98895.53;5098929;27;20100;-92
2023/09/24 08:59:53;;;;;;;2.65;0.70;;;;;;;18.25;100.00;98882.75;5097831;28;20488;-92
2023/09/24 09:02:19;;;;;;;1.40;0.43;;;;;;;18.59;100.00;98920.38;5096615;28;20036;-93
2023/09/24 09:04:51;;;;;;;1.10;0.60;;;;;;;18.73;100.00;98904.25;5099960;27;20053;-93
2023/09/24 09:07:17;;;;;;;1.17;0.68;;;;;;;18.83;100.00;98921.69;5098211;28;20035;-93
2023/09/24 09:09:54;;;;;;;2.53;0.75;;;;;;;18.73;100.00;98882.72;5098033;28;20130;-92
2023/09/24 09:12:20;;;;;;;0.57;0.40;;;;;;;18.06;100.00;98887.44;5095906;28;20062;-93
2023/09/24 09:14:46;;;;;;;1.35;0.40;;;;;;;18.55;100.00;98883.81;5095746;28;20052;-94
2023/09/24 09:17:14;;;;;;;0.98;0.30;;;;;;;18.62;100.00;98921.06;5097265;28;20040;-92
2023/09/24 09:19:51;;;;;;;0.63;0.32;;;;;;;18.60;100.00;98897.84;5098370;28;20512;-94
2023/09/24 09:22:19;;;;;;;0.95;0.30;;;;;;;18.50;100.00;98904.72;5099681;28;20074;-91
2023/09/24 09:24:46;;;;;;;2.53;0.52;;;;;;;18.09;100.00;98938.44;5098678;28;20070;-93
2023/09/24 09:27:13;;;;;;;0.47;0.28;;;;;;;17.75;100.00;98877.50;5099451;28;20043;-94
2023/09/24 09:29:38;;;;;;;0.88;0.38;;;;;;;18.30;100.00;98879.81;5100080;28;20044;-93
2023/09/24 09:32:04;;;;;;;1.27;0.43;;;;;;;19.22;100.00;98924.81;5093951;28;20094;-96
2023/09/24 09:34:32;;;;;;;0.88;0.30;;;;;;;19.23;100.00;98915.75;5099678;28;20568;-94
2023/09/24 09:37:16;;;;;;;1.48;0.55;;;;;;;19.21;100.00;98941.91;5097179;28;20386;-93
2023/09/24 09:39:42;;;;;;;1.63;0.45;;;;;;;18.78;100.00;98895.94;5097377;28;20194;-94
2023/09/24 09:42:13;;;;;;;0.20;0.20;;;;;;;18.95;100.00;98898.50;5097116;28;20044;-95
2023/09/24 09:44:42;;;;;;;1.17;1.05;;;;;;;18.55;100.00;98924.19;5097703;28;20457;-94
2023/09/24 09:47:11;;;;;;;0.55;0.30;;;;;;;19.07;100.00;98905.88;5097258;28;20035;-92
2023/09/24 09:49:47;;;;;;;0.75;0.30;;;;;;;19.49;100.00;98871.00;5096440;28;20039;-93
2023/09/24 09:52:19;;;;;;;1.92;0.38;;;;;;;19.76;100.00;98857.66;5096996;28;20035;-93
2023/09/24 09:54:48;;;;;;;0.35;0.25;;;;;;;20.15;100.00;98896.56;5093732;28;20047;-94
2023/09/24 09:57:14;;;;;;;0.73;0.30;;;;;;;20.31;100.00;98910.78;5097128;28;20512;-93
2023/09/24 09:59:41;;;;;;;0.73;0.20;;;;;;;20.35;100.00;98913.31;5097379;28;20551;-93
2023/09/24 10:02:07;;;;;;;1.48;0.43;;;;;;;20.34;100.00;98863.81;5097996;28;20032;-95
2023/09/24 10:04:35;;;;;;;1.52;0.57;;;;;;;20.49;100.00;98892.53;5096941;28;20039;-92
2023/09/24 10:07:03;;;;;;;11.82;3.58;;;;;;;20.60;100.00;98915.28;5094790;28;20055;-94
2023/09/24 10:09:35;;;;;;;17.25;5.85;;;;;;;20.70;100.00;98903.78;5099016;28;20047;-93
2023/09/24 10:12:06;;;;;;;13.20;3.70;;;;;;;21.11;98.09;98910.06;5099015;28;20039;-93
2023/09/24 10:14:34;;;;;;;13.00;5.35;;;;;;;21.00;100.00;98872.94;5098400;28;20137;-95
2023/09/24 10:17:25;;;;;;;8.50;2.85;;;;;;;21.22;96.38;98925.56;5095537;28;20054;-94
2023/09/24 10:19:53;;;;;;;5.90;2.00;;;;;;;20.97;98.79;98919.13;5095096;28;20173;-92
2023/09/24 10:22:29;;;;;;;5.38;1.63;;;;;;;20.68;95.09;98916.53;5096830;28;20040;-93
2023/09/24 10:24:55;;;;;;;;;;;;;;;20.75;98.77;98944.00;5098257;28;20496;-93
2023/09/24 10:27:24;;;;;;;8.65;3.15;;;;;;;20.70;95.80;98916.44;5099000;28;19928;-94
2023/09/24 10:30:00;;;;;;;;;;;;;;;19.92;100.00;98954.69;5095312;28;20043;-93
2023/09/24 10:32:26;;;;;;;2.75;0.90;;;;;;;19.20;100.00;98945.59;5093749;28;20343;-94
2023/09/24 10:35:09;;;;;;;1.60;0.82;;;;;;;19.22;100.00;98939.13;5096442;28;20382;-93
2023/09/24 10:37:56;;;;;;;0.80;0.43;;;;;;;19.26;100.00;98929.91;5095623;28;20047;-93
2023/09/24 10:40:26;;;;;;;2.10;0.63;;;;;;;19.48;100.00;98942.97;5094878;28;20036;-93
2023/09/24 10:43:17;;;;;;;3.72;0.32;;;;;;;19.13;100.00;98947.78;5096809;28;20052;-93
2023/09/24 10:45:43;;;;;;;1.08;0.30;;;;;;;19.23;100.00;98951.66;5094305;28;20039;-93
2023/09/24 10:48:10;;;;;;;2.28;0.88;;;;;;;19.70;99.34;98950.63;5095474;28;20188;-93
2023/09/24 10:50:39;;;;;;;4.50;1.23;;;;;;;19.70;97.56;98945.25;5096519;28;20135;-93
2023/09/24 10:53:07;;;;;;;1.20;0.50;;;;;;;19.55;96.56;98962.34;5097358;28;20071;-92
2023/09/24 10:55:35;;;;;;;1.45;0.47;;;;;;;19.71;96.26;98940.69;5094374;28;20050;-94
2023/09/24 10:58:04;;;;;;;3.35;0.82;;;;;;;19.69;95.66;98943.53;5096055;28;20101;-93
2023/09/24 11:00:31;;;;;;;5.93;1.20;;;;;;;19.41;93.72;98933.50;5092469;28;20063;-93
2023/09/24 11:02:58;;;;;;;8.27;2.88;;;;;;;19.61;94.07;98972.75;5095388;28;20032;-92
2023/09/24 11:05:24;;;;;;;3.33;1.00;;;;;;;19.32;96.00;98957.47;5101193;28;20384;-94
2023/09/24 11:07:50;;;;;;;1.08;0.57;;;;;;;19.43;94.96;98988.22;5099202;28;20048;-92
2023/09/24 11:10:18;;;;;;;3.00;0.55;;;;;;;19.30;93.17;98979.13;5097175;28;20066;-92
2023/09/24 11:12:48;;;;;;;1.10;0.50;;;;;;;19.27;94.49;98960.44;5097775;28;20039;-93
2023/09/24 11:15:14;;;;;;;2.28;0.47;;;;;;;19.40;91.79;98957.88;5097461;28;20504;-94
2023/09/24 11:17:41;;;;;;;5.28;1.73;;;;;;;19.71;89.97;98964.97;5095058;28;20121;-93
2023/09/24 11:20:08;;;;;;;2.30;1.13;;;;;;;19.66;89.86;98969.78;5098663;28;20040;-92
2023/09/24 11:22:34;;;;;;;3.47;1.10;;;;;;;19.73;91.66;98949.56;5093838;28;20378;-94
2023/09/24 11:25:09;;;;;;;8.35;3.15;;;;;;;20.10;86.79;98982.38;5100765;28;20067;-95
2023/09/24 11:27:45;;;;;;;9.98;3.33;;;;;;;20.53;87.53;98982.34;5099997;28;20067;-93
2023/09/24 11:30:11;;;;;;;3.53;1.20;;;;;;;20.58;87.07;98963.16;5100443;28;20047;-95